Aviation Digital Data Service (ADDS)

Output produced by METARs form (1147 UTC 21 April 2021)
found at http://www.aviationweather.gov/metar/data/
 
KABE 211051Z AUTO 10004KT 10SM FEW110 12/06 A2970 RMK AO2 SLP057 T01170061 $
KABE 211120Z 2112/2212 VRB05KT P6SM SCT100 
     FM211300 21011KT P6SM SCT070 BKN100 
     FM211600 24013G22KT 6SM -SHRA VCTS SCT035CB OVC050 
     FM211800 31016G26KT P6SM SCT025 BKN040 
     FM220300 30010G18KT P6SM SCT040
       
KPTW 211107Z AUTO 00000KT 10SM FEW002 13/06 A2972 RMK AO2 T01280061
KPTW 211054Z AUTO 00000KT 10SM CLR 11/06 A2972 RMK AO2 SLP061 T01110061
KMQS 211135Z AUTO VRB07KT 160V230 10SM SCT110 13/08 A2971 RMK AO2
KMQS 211115Z AUTO VRB04KT 10SM CLR 12/08 A2971 RMK AO2
KMQS 211055Z AUTO VRB05KT 10SM CLR 12/07 A2972 RMK AO2
KPHL 211054Z 19008KT 10SM FEW100 FEW140 14/07 A2973 RMK AO2 SLP066 T01390067
KPHL 211120Z 2112/2218 20011G18KT P6SM SCT070 BKN100 
     FM211700 23015G25KT 6SM -SHRA VCTS SCT035CB OVC060 
     TEMPO 2117/2119 3SM TSRA BKN025CB 
     FM211900 31020G30KT P6SM SCT025 BKN040 
     FM220300 30015G22KT P6SM SCT050 
     FM221300 29018G28KT P6SM FEW060
       
KILG 211051Z 20009KT 10SM CLR 14/07 A2973 RMK AO2 SLP067 T01440067
KILG 211120Z 2112/2212 20011G18KT P6SM SCT080 BKN120 
     FM211700 23015G24KT 6SM -SHRA VCTS SCT035CB OVC060 
     TEMPO 2117/2119 3SM TSRA BKN025CB 
     FM211900 32019G30KT P6SM SCT025 BKN040 
     FM220200 30014G21KT P6SM FEW050
       
KAPG 211058Z 21010KT 10SM BKN120 15/09 A2971 RMK AO2A SLP064 T01480089 $
KMTN 211055Z 16005KT 10SM SCT110 15/08 A2973
KMTN 211131Z 2112/2212 16008KT P6SM SCT130 
     FM211300 22012G20KT P6SM SCT050 BKN130 
     FM211700 30017G31KT 6SM -SHRA BKN050 BKN130 
     FM212000 31018G32KT P6SM SCT060 
     FM220500 29010G20KT P6SM SCT060 
     FM220800 26008KT P6SM SCT060
       
KBWI 211054Z 21007KT 10SM SCT110 SCT150 15/07 A2970 RMK AO2 SLP056 T01500067
KBWI 211131Z 2112/2218 22012G20KT P6SM SCT050 BKN130 
     FM211700 30017G31KT 6SM -SHRA BKN050 BKN130 
     FM212000 31020G34KT P6SM SCT060 
     FM220500 29010G20KT P6SM SCT060 
     FM220800 26008KT P6SM SCT060 
     FM221400 28012G24KT P6SM SCT060
       
KDCA 211052Z 18012KT 10SM FEW120 FEW250 14/08 A2972 RMK AO2 SLP064 T01440078
KDCA 211131Z 2112/2218 19010G20KT P6SM SCT130 
     FM211400 22012G20KT P6SM VCSH BKN045 BKN130 
     FM211700 30017G31KT P6SM VCSH BKN050 BKN130 
     FM212000 31020G35KT P6SM SCT060 
     FM220500 29010G20KT P6SM SCT060 
     FM220800 26008KT P6SM SCT060 
     FM221300 29012G24KT P6SM SCT060
       
KIAD 211052Z 19013KT 10SM SCT150 SCT250 13/06 A2970 RMK AO2 SLP055 T01330061
KIAD 211131Z 2112/2218 19010G20KT P6SM SCT130 
     FM211400 22012G20KT P6SM VCSH BKN045 BKN130 
     FM211600 30015G30KT P6SM BKN050 BKN130 
     FM212000 31020G34KT P6SM SCT060 
     FM220500 29010G20KT P6SM SCT060 
     FM220800 26008KT P6SM SCT060 
     FM221300 29012G24KT P6SM SCT060